sensor_id;sensor_type;location;lat;lon;timestamp;temperature;humidity
44487;DHT22;30191;50.908;6.962;2024-03-08T00:02:23;7.60;99.90
44487;DHT22;30191;50.908;6.962;2024-03-08T00:04:49;7.50;99.90
44487;DHT22;30191;50.908;6.962;2024-03-08T00:07:14;7.50;99.90
44487;DHT22;30191;50.908;6.962;2024-03-08T00:09:40;7.50;99.90
44487;DHT22;30191;50.908;6.962;2024-03-08T00:12:06;7.50;99.90
44487;DHT22;30191;50.908;6.962;2024-03-08T00:14:32;7.50;99.90
44487;DHT22;30191;50.908;6.962;2024-03-08T00:16:58;7.50;99.90
44487;DHT22;30191;50.908;6.962;2024-03-08T00:19:24;7.50;99.90
44487;DHT22;30191;50.908;6.962;2024-03-08T00:21:49;7.40;99.90
44487;DHT22;30191;50.908;6.962;2024-03-08T00:24:15;7.40;99.90
44487;DHT22;30191;50.908;6.962;2024-03-08T00:26:41;7.40;99.90
44487;DHT22;30191;50.908;6.962;2024-03-08T00:29:07;7.30;99.90
44487;DHT22;30191;50.908;6.962;2024-03-08T00:31:33;7.30;99.90
44487;DHT22;30191;50.908;6.962;2024-03-08T00:33:59;7.30;99.90
44487;DHT22;30191;50.908;6.962;2024-03-08T00:36:25;7.30;99.90
44487;DHT22;30191;50.908;6.962;2024-03-08T00:38:50;7.40;99.90
44487;DHT22;30191;50.908;6.962;2024-03-08T00:41:16;7.40;99.90
44487;DHT22;30191;50.908;6.962;2024-03-08T00:43:42;7.40;99.90
44487;DHT22;30191;50.908;6.962;2024-03-08T00:46:07;7.30;99.90
44487;DHT22;30191;50.908;6.962;2024-03-08T00:48:33;7.20;99.90
44487;DHT22;30191;50.908;6.962;2024-03-08T00:50:58;7.10;99.90
44487;DHT22;30191;50.908;6.962;2024-03-08T00:53:24;7.10;99.90
44487;DHT22;30191;50.908;6.962;2024-03-08T00:55:50;7.10;99.90
44487;DHT22;30191;50.908;6.962;2024-03-08T00:58:15;7.00;99.90
44487;DHT22;30191;50.908;6.962;2024-03-08T01:00:41;7.00;99.90
44487;DHT22;30191;50.908;6.962;2024-03-08T01:03:07;7.00;99.90
44487;DHT22;30191;50.908;6.962;2024-03-08T01:05:33;7.20;99.90
44487;DHT22;30191;50.908;6.962;2024-03-08T01:07:59;7.20;99.90
44487;DHT22;30191;50.908;6.962;2024-03-08T01:10:24;7.10;99.90
44487;DHT22;30191;50.908;6.962;2024-03-08T01:12:50;7.00;99.90
44487;DHT22;30191;50.908;6.962;2024-03-08T01:15:17;7.00;99.90
44487;DHT22;30191;50.908;6.962;2024-03-08T01:17:42;7.00;99.90
44487;DHT22;30191;50.908;6.962;2024-03-08T01:20:09;7.00;99.90
44487;DHT22;30191;50.908;6.962;2024-03-08T01:22:38;7.00;99.90
44487;DHT22;30191;50.908;6.962;2024-03-08T01:25:04;7.10;99.90
44487;DHT22;30191;50.908;6.962;2024-03-08T01:27:30;7.10;99.90
44487;DHT22;30191;50.908;6.962;2024-03-08T01:29:56;7.20;99.90
44487;DHT22;30191;50.908;6.962;2024-03-08T01:32:22;7.20;99.90
44487;DHT22;30191;50.908;6.962;2024-03-08T01:34:49;7.10;99.90
44487;DHT22;30191;50.908;6.962;2024-03-08T01:37:14;7.10;99.90
44487;DHT22;30191;50.908;6.962;2024-03-08T01:39:40;7.00;99.90
44487;DHT22;30191;50.908;6.962;2024-03-08T01:42:06;6.90;99.90
44487;DHT22;30191;50.908;6.962;2024-03-08T01:44:31;6.90;99.90
44487;DHT22;30191;50.908;6.962;2024-03-08T01:46:57;6.90;99.90
44487;DHT22;30191;50.908;6.962;2024-03-08T01:49:24;6.90;99.90
44487;DHT22;30191;50.908;6.962;2024-03-08T01:51:50;6.90;99.90
44487;DHT22;30191;50.908;6.962;2024-03-08T01:54:17;6.90;99.90
44487;DHT22;30191;50.908;6.962;2024-03-08T01:56:43;6.80;99.90
44487;DHT22;30191;50.908;6.962;2024-03-08T01:59:09;6.90;99.90
44487;DHT22;30191;50.908;6.962;2024-03-08T02:01:35;6.90;99.90
44487;DHT22;30191;50.908;6.962;2024-03-08T02:04:00;6.90;99.90
44487;DHT22;30191;50.908;6.962;2024-03-08T02:06:26;6.90;99.90
44487;DHT22;30191;50.908;6.962;2024-03-08T02:08:52;6.90;99.90
44487;DHT22;30191;50.908;6.962;2024-03-08T02:11:17;6.90;99.90
44487;DHT22;30191;50.908;6.962;2024-03-08T02:13:44;6.90;99.90
44487;DHT22;30191;50.908;6.962;2024-03-08T02:16:09;6.90;99.90
44487;DHT22;30191;50.908;6.962;2024-03-08T02:18:35;6.90;99.90
44487;DHT22;30191;50.908;6.962;2024-03-08T02:21:02;6.80;99.90
44487;DHT22;30191;50.908;6.962;2024-03-08T02:23:29;6.80;99.90
44487;DHT22;30191;50.908;6.962;2024-03-08T02:25:56;6.90;99.90
44487;DHT22;30191;50.908;6.962;2024-03-08T02:28:22;6.80;99.90
44487;DHT22;30191;50.908;6.962;2024-03-08T02:30:49;6.70;99.90
44487;DHT22;30191;50.908;6.962;2024-03-08T02:33:26;6.70;99.90
44487;DHT22;30191;50.908;6.962;2024-03-08T02:35:51;6.70;99.90
44487;DHT22;30191;50.908;6.962;2024-03-08T02:38:19;6.60;99.90
44487;DHT22;30191;50.908;6.962;2024-03-08T02:40:45;6.60;99.90
44487;DHT22;30191;50.908;6.962;2024-03-08T02:43:13;6.50;99.90
44487;DHT22;30191;50.908;6.962;2024-03-08T02:45:40;6.50;99.90
44487;DHT22;30191;50.908;6.962;2024-03-08T02:48:15;6.50;99.90
44487;DHT22;30191;50.908;6.962;2024-03-08T02:50:44;6.40;99.90
44487;DHT22;30191;50.908;6.962;2024-03-08T02:53:10;6.40;99.90
44487;DHT22;30191;50.908;6.962;2024-03-08T02:55:37;6.30;99.90
44487;DHT22;30191;50.908;6.962;2024-03-08T02:58:03;6.30;99.90
44487;DHT22;30191;50.908;6.962;2024-03-08T03:00:30;6.30;99.90
44487;DHT22;30191;50.908;6.962;2024-03-08T03:02:59;6.30;99.90
44487;DHT22;30191;50.908;6.962;2024-03-08T03:05:28;6.30;99.90
44487;DHT22;30191;50.908;6.962;2024-03-08T03:07:54;6.30;99.90
44487;DHT22;30191;50.908;6.962;2024-03-08T03:10:19;6.30;99.90
44487;DHT22;30191;50.908;6.962;2024-03-08T03:12:47;6.30;99.90
44487;DHT22;30191;50.908;6.962;2024-03-08T03:15:14;6.40;99.90
44487;DHT22;30191;50.908;6.962;2024-03-08T03:17:46;6.30;99.90
44487;DHT22;30191;50.908;6.962;2024-03-08T03:20:12;6.30;99.90
44487;DHT22;30191;50.908;6.962;2024-03-08T03:22:48;6.30;99.90
44487;DHT22;30191;50.908;6.962;2024-03-08T03:25:17;6.30;99.90
44487;DHT22;30191;50.908;6.962;2024-03-08T03:27:49;6.30;99.90
44487;DHT22;30191;50.908;6.962;2024-03-08T03:30:15;6.30;99.90
44487;DHT22;30191;50.908;6.962;2024-03-08T03:32:49;6.30;99.90
44487;DHT22;30191;50.908;6.962;2024-03-08T03:35:17;6.20;99.90
44487;DHT22;30191;50.908;6.962;2024-03-08T03:37:42;6.20;99.90
44487;DHT22;30191;50.908;6.962;2024-03-08T03:40:11;6.30;99.90
44487;DHT22;30191;50.908;6.962;2024-03-08T03:42:37;6.20;99.90
44487;DHT22;30191;50.908;6.962;2024-03-08T03:45:05;6.20;99.90
44487;DHT22;30191;50.908;6.962;2024-03-08T03:47:31;6.20;99.90
44487;DHT22;30191;50.908;6.962;2024-03-08T03:49:57;6.20;99.90
44487;DHT22;30191;50.908;6.962;2024-03-08T03:52:27;6.30;99.90
44487;DHT22;30191;50.908;6.962;2024-03-08T03:54:52;6.30;99.90
44487;DHT22;30191;50.908;6.962;2024-03-08T03:57:18;6.30;99.90
44487;DHT22;30191;50.908;6.962;2024-03-08T03:59:45;6.30;99.90
44487;DHT22;30191;50.908;6.962;2024-03-08T04:02:13;6.30;99.90
44487;DHT22;30191;50.908;6.962;2024-03-08T04:04:38;6.20;99.90
44487;DHT22;30191;50.908;6.962;2024-03-08T04:07:04;6.10;99.90
44487;DHT22;30191;50.908;6.962;2024-03-08T04:09:30;6.10;99.90
44487;DHT22;30191;50.908;6.962;2024-03-08T04:11:56;6.10;99.90
44487;DHT22;30191;50.908;6.962;2024-03-08T04:14:22;6.00;99.90
44487;DHT22;30191;50.908;6.962;2024-03-08T04:16:48;6.00;99.90
44487;DHT22;30191;50.908;6.962;2024-03-08T04:19:14;6.00;99.90
44487;DHT22;30191;50.908;6.962;2024-03-08T04:21:39;5.90;99.90
44487;DHT22;30191;50.908;6.962;2024-03-08T04:24:05;5.90;99.90
44487;DHT22;30191;50.908;6.962;2024-03-08T04:26:31;5.90;99.90
44487;DHT22;30191;50.908;6.962;2024-03-08T04:28:57;5.90;99.90
44487;DHT22;30191;50.908;6.962;2024-03-08T04:31:22;6.00;99.90
44487;DHT22;30191;50.908;6.962;2024-03-08T04:33:48;6.00;99.90
44487;DHT22;30191;50.908;6.962;2024-03-08T04:36:14;6.00;99.90
44487;DHT22;30191;50.908;6.962;2024-03-08T04:38:40;6.00;99.90
44487;DHT22;30191;50.908;6.962;2024-03-08T04:41:06;5.90;99.90
44487;DHT22;30191;50.908;6.962;2024-03-08T04:43:33;5.90;99.90
44487;DHT22;30191;50.908;6.962;2024-03-08T04:45:59;6.00;99.90
44487;DHT22;30191;50.908;6.962;2024-03-08T04:48:24;5.90;99.90
44487;DHT22;30191;50.908;6.962;2024-03-08T04:50:55;5.90;99.90
44487;DHT22;30191;50.908;6.962;2024-03-08T04:53:21;5.90;99.90
44487;DHT22;30191;50.908;6.962;2024-03-08T04:55:47;6.00;99.90
44487;DHT22;30191;50.908;6.962;2024-03-08T04:58:12;5.90;99.90
44487;DHT22;30191;50.908;6.962;2024-03-08T05:00:38;5.90;99.90
44487;DHT22;30191;50.908;6.962;2024-03-08T05:03:04;5.90;99.90
44487;DHT22;30191;50.908;6.962;2024-03-08T05:05:30;5.90;99.90
44487;DHT22;30191;50.908;6.962;2024-03-08T05:07:56;5.90;99.90
44487;DHT22;30191;50.908;6.962;2024-03-08T05:10:22;5.80;99.90
44487;DHT22;30191;50.908;6.962;2024-03-08T05:12:47;5.90;99.90
44487;DHT22;30191;50.908;6.962;2024-03-08T05:15:13;5.80;99.90
44487;DHT22;30191;50.908;6.962;2024-03-08T05:17:38;5.80;99.90
44487;DHT22;30191;50.908;6.962;2024-03-08T05:20:06;5.80;99.90
44487;DHT22;30191;50.908;6.962;2024-03-08T05:22:33;5.80;99.90
44487;DHT22;30191;50.908;6.962;2024-03-08T05:24:59;5.80;99.90
44487;DHT22;30191;50.908;6.962;2024-03-08T05:27:25;5.80;99.90
44487;DHT22;30191;50.908;6.962;2024-03-08T05:29:50;5.90;99.90
44487;DHT22;30191;50.908;6.962;2024-03-08T05:32:16;5.80;99.90
44487;DHT22;30191;50.908;6.962;2024-03-08T05:34:41;5.80;99.90
44487;DHT22;30191;50.908;6.962;2024-03-08T05:37:08;5.80;99.90
44487;DHT22;30191;50.908;6.962;2024-03-08T05:39:33;5.80;99.90
44487;DHT22;30191;50.908;6.962;2024-03-08T05:41:59;5.80;99.90
44487;DHT22;30191;50.908;6.962;2024-03-08T05:44:25;5.80;99.90
44487;DHT22;30191;50.908;6.962;2024-03-08T05:46:54;5.80;99.90
44487;DHT22;30191;50.908;6.962;2024-03-08T05:49:19;5.80;99.90
44487;DHT22;30191;50.908;6.962;2024-03-08T05:51:46;5.80;99.90
44487;DHT22;30191;50.908;6.962;2024-03-08T05:54:13;5.90;99.90
44487;DHT22;30191;50.908;6.962;2024-03-08T05:56:39;5.80;99.90
44487;DHT22;30191;50.908;6.962;2024-03-08T05:59:09;5.80;99.90
44487;DHT22;30191;50.908;6.962;2024-03-08T06:01:35;5.80;99.90
44487;DHT22;30191;50.908;6.962;2024-03-08T06:04:02;5.70;99.90
44487;DHT22;30191;50.908;6.962;2024-03-08T06:06:28;5.70;99.90
44487;DHT22;30191;50.908;6.962;2024-03-08T06:08:55;5.70;99.90
44487;DHT22;30191;50.908;6.962;2024-03-08T06:11:24;5.70;99.90
44487;DHT22;30191;50.908;6.962;2024-03-08T06:13:52;5.70;99.90
44487;DHT22;30191;50.908;6.962;2024-03-08T06:16:25;5.70;99.90
44487;DHT22;30191;50.908;6.962;2024-03-08T06:18:55;5.60;99.90
44487;DHT22;30191;50.908;6.962;2024-03-08T06:21:20;5.60;99.90
44487;DHT22;30191;50.908;6.962;2024-03-08T06:23:48;5.60;99.90
44487;DHT22;30191;50.908;6.962;2024-03-08T06:26:13;5.70;99.90
44487;DHT22;30191;50.908;6.962;2024-03-08T06:28:39;5.70;99.90
44487;DHT22;30191;50.908;6.962;2024-03-08T06:31:05;5.70;99.90
44487;DHT22;30191;50.908;6.962;2024-03-08T06:33:31;5.70;99.90
44487;DHT22;30191;50.908;6.962;2024-03-08T06:36:00;5.70;99.90
44487;DHT22;30191;50.908;6.962;2024-03-08T06:38:26;5.70;99.90
44487;DHT22;30191;50.908;6.962;2024-03-08T06:40:52;5.70;99.90
44487;DHT22;30191;50.908;6.962;2024-03-08T06:43:20;5.70;99.90
44487;DHT22;30191;50.908;6.962;2024-03-08T06:45:45;5.70;99.90
44487;DHT22;30191;50.908;6.962;2024-03-08T06:48:17;5.70;99.90
44487;DHT22;30191;50.908;6.962;2024-03-08T06:50:46;5.70;99.90
44487;DHT22;30191;50.908;6.962;2024-03-08T06:53:12;5.70;99.90
44487;DHT22;30191;50.908;6.962;2024-03-08T06:55:39;5.80;99.90
44487;DHT22;30191;50.908;6.962;2024-03-08T06:58:05;5.80;99.90
44487;DHT22;30191;50.908;6.962;2024-03-08T07:00:32;5.80;99.90
44487;DHT22;30191;50.908;6.962;2024-03-08T07:02:58;5.80;99.90
44487;DHT22;30191;50.908;6.962;2024-03-08T07:05:27;5.80;99.90
44487;DHT22;30191;50.908;6.962;2024-03-08T07:07:53;5.90;99.90
44487;DHT22;30191;50.908;6.962;2024-03-08T07:10:23;5.90;99.90
44487;DHT22;30191;50.908;6.962;2024-03-08T07:12:53;5.90;99.90
44487;DHT22;30191;50.908;6.962;2024-03-08T07:15:19;5.90;99.90
44487;DHT22;30191;50.908;6.962;2024-03-08T07:17:49;5.90;99.90
44487;DHT22;30191;50.908;6.962;2024-03-08T07:20:15;6.00;99.90
44487;DHT22;30191;50.908;6.962;2024-03-08T07:22:44;6.00;99.90
44487;DHT22;30191;50.908;6.962;2024-03-08T07:25:13;6.00;99.90
44487;DHT22;30191;50.908;6.962;2024-03-08T07:27:56;6.00;99.90
44487;DHT22;30191;50.908;6.962;2024-03-08T07:30:23;6.00;99.90
44487;DHT22;30191;50.908;6.962;2024-03-08T07:33:08;6.00;99.90
44487;DHT22;30191;50.908;6.962;2024-03-08T07:35:37;6.10;99.90
44487;DHT22;30191;50.908;6.962;2024-03-08T07:38:07;6.10;99.90
44487;DHT22;30191;50.908;6.962;2024-03-08T07:40:39;6.20;99.90
44487;DHT22;30191;50.908;6.962;2024-03-08T07:43:09;6.20;99.90
44487;DHT22;30191;50.908;6.962;2024-03-08T07:45:36;6.20;99.90
44487;DHT22;30191;50.908;6.962;2024-03-08T07:48:02;6.20;99.90
44487;DHT22;30191;50.908;6.962;2024-03-08T07:50:28;6.20;99.90
44487;DHT22;30191;50.908;6.962;2024-03-08T07:52:54;6.30;99.90
44487;DHT22;30191;50.908;6.962;2024-03-08T07:55:20;6.30;99.90
44487;DHT22;30191;50.908;6.962;2024-03-08T07:57:49;6.30;99.90
44487;DHT22;30191;50.908;6.962;2024-03-08T08:00:15;6.30;99.90
44487;DHT22;30191;50.908;6.962;2024-03-08T08:02:44;6.30;99.90
44487;DHT22;30191;50.908;6.962;2024-03-08T08:05:11;6.30;99.90
44487;DHT22;30191;50.908;6.962;2024-03-08T08:07:36;6.40;99.90
44487;DHT22;30191;50.908;6.962;2024-03-08T08:10:02;6.50;99.90
44487;DHT22;30191;50.908;6.962;2024-03-08T08:12:28;6.50;99.90
44487;DHT22;30191;50.908;6.962;2024-03-08T08:14:54;6.50;99.90
44487;DHT22;30191;50.908;6.962;2024-03-08T08:17:20;6.50;99.90
44487;DHT22;30191;50.908;6.962;2024-03-08T08:19:45;6.60;99.90
44487;DHT22;30191;50.908;6.962;2024-03-08T08:22:11;6.60;99.90
44487;DHT22;30191;50.908;6.962;2024-03-08T08:24:37;6.60;99.90
44487;DHT22;30191;50.908;6.962;2024-03-08T08:27:04;6.60;99.90
44487;DHT22;30191;50.908;6.962;2024-03-08T08:29:29;6.60;99.90
44487;DHT22;30191;50.908;6.962;2024-03-08T08:31:57;6.70;99.90
44487;DHT22;30191;50.908;6.962;2024-03-08T08:34:24;6.70;99.90
44487;DHT22;30191;50.908;6.962;2024-03-08T08:36:52;6.80;99.90
44487;DHT22;30191;50.908;6.962;2024-03-08T08:39:18;6.90;99.90
44487;DHT22;30191;50.908;6.962;2024-03-08T08:41:44;6.90;99.90
44487;DHT22;30191;50.908;6.962;2024-03-08T08:44:10;7.00;99.90
44487;DHT22;30191;50.908;6.962;2024-03-08T08:46:37;7.00;99.90
44487;DHT22;30191;50.908;6.962;2024-03-08T08:49:04;7.10;99.90
44487;DHT22;30191;50.908;6.962;2024-03-08T08:51:30;7.10;99.90
44487;DHT22;30191;50.908;6.962;2024-03-08T08:53:56;7.20;99.90
44487;DHT22;30191;50.908;6.962;2024-03-08T08:56:22;7.20;99.90
44487;DHT22;30191;50.908;6.962;2024-03-08T08:58:47;7.20;99.90
44487;DHT22;30191;50.908;6.962;2024-03-08T09:01:14;7.30;99.90
44487;DHT22;30191;50.908;6.962;2024-03-08T09:03:40;7.30;99.90
44487;DHT22;30191;50.908;6.962;2024-03-08T09:06:09;7.40;99.90
44487;DHT22;30191;50.908;6.962;2024-03-08T09:08:37;7.40;99.90
44487;DHT22;30191;50.908;6.962;2024-03-08T09:11:06;7.50;99.90
44487;DHT22;30191;50.908;6.962;2024-03-08T09:13:32;7.50;99.90
44487;DHT22;30191;50.908;6.962;2024-03-08T09:15:59;7.50;99.90
44487;DHT22;30191;50.908;6.962;2024-03-08T09:18:25;7.60;99.90
44487;DHT22;30191;50.908;6.962;2024-03-08T09:20:51;7.60;99.90
44487;DHT22;30191;50.908;6.962;2024-03-08T09:23:21;7.70;99.90
44487;DHT22;30191;50.908;6.962;2024-03-08T09:25:47;7.80;99.90
44487;DHT22;30191;50.908;6.962;2024-03-08T09:28:12;7.80;99.90
44487;DHT22;30191;50.908;6.962;2024-03-08T09:30:39;7.80;99.90
44487;DHT22;30191;50.908;6.962;2024-03-08T09:33:05;7.90;99.90
44487;DHT22;30191;50.908;6.962;2024-03-08T09:35:31;7.90;99.90
44487;DHT22;30191;50.908;6.962;2024-03-08T09:37:57;8.00;99.90
44487;DHT22;30191;50.908;6.962;2024-03-08T09:40:23;8.10;99.90
44487;DHT22;30191;50.908;6.962;2024-03-08T09:42:51;8.20;99.90
44487;DHT22;30191;50.908;6.962;2024-03-08T09:45:20;8.20;99.90
44487;DHT22;30191;50.908;6.962;2024-03-08T09:47:47;8.20;99.90
44487;DHT22;30191;50.908;6.962;2024-03-08T09:50:14;8.30;99.90
44487;DHT22;30191;50.908;6.962;2024-03-08T09:52:42;8.30;99.90
44487;DHT22;30191;50.908;6.962;2024-03-08T09:55:10;8.40;99.90
44487;DHT22;30191;50.908;6.962;2024-03-08T09:57:37;8.50;99.90
44487;DHT22;30191;50.908;6.962;2024-03-08T10:00:06;8.60;99.90
44487;DHT22;30191;50.908;6.962;2024-03-08T10:02:47;8.70;99.90
44487;DHT22;30191;50.908;6.962;2024-03-08T10:05:14;8.80;99.90
44487;DHT22;30191;50.908;6.962;2024-03-08T10:07:39;8.90;99.90
44487;DHT22;30191;50.908;6.962;2024-03-08T10:10:05;9.00;99.90
44487;DHT22;30191;50.908;6.962;2024-03-08T10:12:36;9.10;99.90
44487;DHT22;30191;50.908;6.962;2024-03-08T10:15:02;9.20;99.90
44487;DHT22;30191;50.908;6.962;2024-03-08T10:17:27;9.30;99.90
44487;DHT22;30191;50.908;6.962;2024-03-08T10:19:57;9.30;99.90
44487;DHT22;30191;50.908;6.962;2024-03-08T10:22:25;9.50;99.90
44487;DHT22;30191;50.908;6.962;2024-03-08T10:24:51;9.50;99.90
44487;DHT22;30191;50.908;6.962;2024-03-08T10:27:17;9.50;99.90
44487;DHT22;30191;50.908;6.962;2024-03-08T10:29:46;9.50;99.90
44487;DHT22;30191;50.908;6.962;2024-03-08T10:32:11;9.40;99.90
44487;DHT22;30191;50.908;6.962;2024-03-08T10:34:37;9.50;99.90
44487;DHT22;30191;50.908;6.962;2024-03-08T10:37:07;9.50;99.90
44487;DHT22;30191;50.908;6.962;2024-03-08T10:39:37;9.60;99.90
44487;DHT22;30191;50.908;6.962;2024-03-08T10:42:04;9.60;99.90
44487;DHT22;30191;50.908;6.962;2024-03-08T10:47:03;9.60;99.90
44487;DHT22;30191;50.908;6.962;2024-03-08T10:49:38;9.60;99.90
44487;DHT22;30191;50.908;6.962;2024-03-08T10:52:05;9.60;99.90
44487;DHT22;30191;50.908;6.962;2024-03-08T10:54:34;9.60;99.90
44487;DHT22;30191;50.908;6.962;2024-03-08T10:57:05;9.60;99.90
44487;DHT22;30191;50.908;6.962;2024-03-08T10:59:31;9.70;99.90
44487;DHT22;30191;50.908;6.962;2024-03-08T11:01:59;9.70;99.90
44487;DHT22;30191;50.908;6.962;2024-03-08T11:04:25;9.80;99.90
44487;DHT22;30191;50.908;6.962;2024-03-08T11:06:51;9.80;99.90
44487;DHT22;30191;50.908;6.962;2024-03-08T11:09:36;9.90;99.90
44487;DHT22;30191;50.908;6.962;2024-03-08T11:12:21;9.90;99.90
44487;DHT22;30191;50.908;6.962;2024-03-08T11:14:48;9.90;99.90
44487;DHT22;30191;50.908;6.962;2024-03-08T11:17:16;9.90;99.90
44487;DHT22;30191;50.908;6.962;2024-03-08T11:19:48;9.90;99.90
44487;DHT22;30191;50.908;6.962;2024-03-08T11:22:21;10.00;99.90
44487;DHT22;30191;50.908;6.962;2024-03-08T11:24:49;10.00;99.90
44487;DHT22;30191;50.908;6.962;2024-03-08T11:27:15;10.00;99.90
44487;DHT22;30191;50.908;6.962;2024-03-08T11:29:41;10.00;99.90
44487;DHT22;30191;50.908;6.962;2024-03-08T11:32:11;10.10;99.90
44487;DHT22;30191;50.908;6.962;2024-03-08T11:34:42;10.10;99.90
44487;DHT22;30191;50.908;6.962;2024-03-08T11:37:15;10.20;99.90
44487;DHT22;30191;50.908;6.962;2024-03-08T11:39:47;10.20;99.90
44487;DHT22;30191;50.908;6.962;2024-03-08T11:42:19;10.30;99.90
44487;DHT22;30191;50.908;6.962;2024-03-08T11:44:46;10.30;99.90
44487;DHT22;30191;50.908;6.962;2024-03-08T11:47:13;10.40;99.90
44487;DHT22;30191;50.908;6.962;2024-03-08T11:49:40;10.40;99.40
44487;DHT22;30191;50.908;6.962;2024-03-08T11:52:16;10.50;99.80
44487;DHT22;30191;50.908;6.962;2024-03-08T11:54:49;10.50;99.90
44487;DHT22;30191;50.908;6.962;2024-03-08T11:57:20;10.50;99.90
44487;DHT22;30191;50.908;6.962;2024-03-08T11:59:54;10.60;99.90
44487;DHT22;30191;50.908;6.962;2024-03-08T12:02:20;10.60;99.90
44487;DHT22;30191;50.908;6.962;2024-03-08T12:04:46;10.70;99.90
44487;DHT22;30191;50.908;6.962;2024-03-08T12:07:12;10.80;99.60
44487;DHT22;30191;50.908;6.962;2024-03-08T12:09:40;10.80;99.60
44487;DHT22;30191;50.908;6.962;2024-03-08T12:12:07;10.90;99.90
44487;DHT22;30191;50.908;6.962;2024-03-08T12:14:33;11.00;99.60
44487;DHT22;30191;50.908;6.962;2024-03-08T12:16:59;11.10;99.30
44487;DHT22;30191;50.908;6.962;2024-03-08T12:19:30;11.20;98.70
44487;DHT22;30191;50.908;6.962;2024-03-08T12:21:56;11.20;98.50
44487;DHT22;30191;50.908;6.962;2024-03-08T12:24:21;11.30;98.70
44487;DHT22;30191;50.908;6.962;2024-03-08T12:26:48;11.30;98.30
44487;DHT22;30191;50.908;6.962;2024-03-08T12:29:26;11.40;98.20
44487;DHT22;30191;50.908;6.962;2024-03-08T12:31:54;11.50;98.40
44487;DHT22;30191;50.908;6.962;2024-03-08T12:34:20;11.60;98.50
44487;DHT22;30191;50.908;6.962;2024-03-08T12:36:47;11.60;97.70
44487;DHT22;30191;50.908;6.962;2024-03-08T12:39:17;11.70;97.80
44487;DHT22;30191;50.908;6.962;2024-03-08T12:41:43;11.80;97.60
44487;DHT22;30191;50.908;6.962;2024-03-08T12:44:09;11.90;98.10
44487;DHT22;30191;50.908;6.962;2024-03-08T12:46:37;11.90;97.50
44487;DHT22;30191;50.908;6.962;2024-03-08T12:49:09;12.10;97.80
44487;DHT22;30191;50.908;6.962;2024-03-08T12:51:36;12.20;97.40
44487;DHT22;30191;50.908;6.962;2024-03-08T12:54:05;12.20;97.80
44487;DHT22;30191;50.908;6.962;2024-03-08T12:56:33;12.30;97.40
44487;DHT22;30191;50.908;6.962;2024-03-08T12:59:02;12.50;97.10
44487;DHT22;30191;50.908;6.962;2024-03-08T13:01:28;12.60;97.10
44487;DHT22;30191;50.908;6.962;2024-03-08T13:03:54;12.60;96.30
44487;DHT22;30191;50.908;6.962;2024-03-08T13:06:21;12.70;96.60
44487;DHT22;30191;50.908;6.962;2024-03-08T13:08:51;12.80;96.90
44487;DHT22;30191;50.908;6.962;2024-03-08T13:11:17;13.00;96.50
44487;DHT22;30191;50.908;6.962;2024-03-08T13:13:45;13.10;96.50
44487;DHT22;30191;50.908;6.962;2024-03-08T13:16:11;13.30;95.90
44487;DHT22;30191;50.908;6.962;2024-03-08T13:18:40;13.40;95.90
44487;DHT22;30191;50.908;6.962;2024-03-08T13:21:07;13.50;95.60
44487;DHT22;30191;50.908;6.962;2024-03-08T13:23:35;13.70;95.30
44487;DHT22;30191;50.908;6.962;2024-03-08T13:26:08;13.90;94.90
44487;DHT22;30191;50.908;6.962;2024-03-08T13:28:34;14.10;95.00
44487;DHT22;30191;50.908;6.962;2024-03-08T13:31:06;14.40;94.20
44487;DHT22;30191;50.908;6.962;2024-03-08T13:33:38;14.60;94.00
44487;DHT22;30191;50.908;6.962;2024-03-08T13:36:08;15.10;93.20
44487;DHT22;30191;50.908;6.962;2024-03-08T13:38:43;15.80;92.00
44487;DHT22;30191;50.908;6.962;2024-03-08T13:41:13;17.20;89.50
44487;DHT22;30191;50.908;6.962;2024-03-08T13:43:46;18.80;85.20
44487;DHT22;30191;50.908;6.962;2024-03-08T13:46:12;20.00;78.00
44487;DHT22;30191;50.908;6.962;2024-03-08T13:48:38;20.30;72.70
44487;DHT22;30191;50.908;6.962;2024-03-08T13:51:05;20.60;69.50
44487;DHT22;30191;50.908;6.962;2024-03-08T13:53:32;21.50;66.50
44487;DHT22;30191;50.908;6.962;2024-03-08T13:55:58;22.20;62.30
44487;DHT22;30191;50.908;6.962;2024-03-08T13:58:26;22.90;60.20
44487;DHT22;30191;50.908;6.962;2024-03-08T14:00:51;23.30;58.00
44487;DHT22;30191;50.908;6.962;2024-03-08T14:03:17;23.50;57.10
44487;DHT22;30191;50.908;6.962;2024-03-08T14:05:43;23.70;56.70
44487;DHT22;30191;50.908;6.962;2024-03-08T14:08:10;23.50;56.50
44487;DHT22;30191;50.908;6.962;2024-03-08T14:10:37;23.50;55.40
44487;DHT22;30191;50.908;6.962;2024-03-08T14:13:04;23.40;53.90
44487;DHT22;30191;50.908;6.962;2024-03-08T14:15:34;22.90;55.30
44487;DHT22;30191;50.908;6.962;2024-03-08T14:18:00;22.40;55.50
44487;DHT22;30191;50.908;6.962;2024-03-08T14:20:26;22.40;55.30
44487;DHT22;30191;50.908;6.962;2024-03-08T14:22:53;22.20;54.90
44487;DHT22;30191;50.908;6.962;2024-03-08T14:25:20;22.10;55.60
44487;DHT22;30191;50.908;6.962;2024-03-08T14:27:49;21.90;55.70
44487;DHT22;30191;50.908;6.962;2024-03-08T14:30:16;21.90;56.20
44487;DHT22;30191;50.908;6.962;2024-03-08T14:32:59;21.80;54.80
44487;DHT22;30191;50.908;6.962;2024-03-08T14:35:26;21.80;56.10
44487;DHT22;30191;50.908;6.962;2024-03-08T14:37:52;21.90;56.10
44487;DHT22;30191;50.908;6.962;2024-03-08T14:40:18;22.00;56.30
44487;DHT22;30191;50.908;6.962;2024-03-08T14:42:48;21.70;55.80
44487;DHT22;30191;50.908;6.962;2024-03-08T14:45:15;21.70;55.70
44487;DHT22;30191;50.908;6.962;2024-03-08T14:47:41;21.50;56.30
44487;DHT22;30191;50.908;6.962;2024-03-08T14:50:08;21.30;57.10
44487;DHT22;30191;50.908;6.962;2024-03-08T14:52:35;21.20;57.50
44487;DHT22;30191;50.908;6.962;2024-03-08T14:55:01;21.10;57.40
44487;DHT22;30191;50.908;6.962;2024-03-08T14:57:32;21.00;57.30
44487;DHT22;30191;50.908;6.962;2024-03-08T14:59:58;20.70;58.30
44487;DHT22;30191;50.908;6.962;2024-03-08T15:02:31;20.40;58.50
44487;DHT22;30191;50.908;6.962;2024-03-08T15:04:57;20.00;58.60
44487;DHT22;30191;50.908;6.962;2024-03-08T15:07:26;19.60;58.70
44487;DHT22;30191;50.908;6.962;2024-03-08T15:09:53;19.30;59.70
44487;DHT22;30191;50.908;6.962;2024-03-08T15:12:21;19.10;59.80
44487;DHT22;30191;50.908;6.962;2024-03-08T15:14:47;18.80;60.00
44487;DHT22;30191;50.908;6.962;2024-03-08T15:17:13;18.40;61.40
44487;DHT22;30191;50.908;6.962;2024-03-08T15:19:47;18.10;61.90
44487;DHT22;30191;50.908;6.962;2024-03-08T15:22:13;17.80;62.60
44487;DHT22;30191;50.908;6.962;2024-03-08T15:24:39;17.50;62.80
44487;DHT22;30191;50.908;6.962;2024-03-08T15:27:04;17.40;64.00
44487;DHT22;30191;50.908;6.962;2024-03-08T15:29:30;17.30;63.90
44487;DHT22;30191;50.908;6.962;2024-03-08T15:31:57;17.00;64.60
44487;DHT22;30191;50.908;6.962;2024-03-08T15:34:23;16.80;65.30
44487;DHT22;30191;50.908;6.962;2024-03-08T15:36:50;16.60;65.40
44487;DHT22;30191;50.908;6.962;2024-03-08T15:39:19;16.40;66.60
44487;DHT22;30191;50.908;6.962;2024-03-08T15:41:48;16.30;67.70
44487;DHT22;30191;50.908;6.962;2024-03-08T15:44:14;16.30;68.20
44487;DHT22;30191;50.908;6.962;2024-03-08T15:46:41;16.20;67.40